createdAt,value
2022-12-28T00:00:02.969Z,88.76
2022-12-28T00:05:06.388Z,88.79
2022-12-28T00:10:09.804Z,88.88
2022-12-28T00:15:13.017Z,88.79
2022-12-28T00:20:16.260Z,88.71
2022-12-28T00:25:19.317Z,88.73
2022-12-28T00:30:22.361Z,88.68
2022-12-28T00:35:25.427Z,88.68
2022-12-28T00:40:28.652Z,88.75
2022-12-28T00:45:31.885Z,88.58
2022-12-28T00:50:34.962Z,88.43
2022-12-28T00:55:39.493Z,88.39
2022-12-28T01:00:43.133Z,88.38
2022-12-28T01:05:46.319Z,88.31
2022-12-28T01:10:50.141Z,88.24
2022-12-28T01:15:53.184Z,88.14
2022-12-28T01:20:56.150Z,88.17
2022-12-28T01:26:03.100Z,88.14
2022-12-28T01:31:13.042Z,87.99
2022-12-28T01:36:22.829Z,87.75
2022-12-28T01:41:29.033Z,87.70
2022-12-28T01:46:35.549Z,87.70
2022-12-28T01:51:54.412Z,87.63
2022-12-28T01:56:58.254Z,87.54
2022-12-28T02:02:01.524Z,87.40
2022-12-28T02:07:05.294Z,87.46
2022-12-28T02:12:15.477Z,87.60
2022-12-28T02:17:18.569Z,87.68
2022-12-28T02:22:54.641Z,87.63
2022-12-28T02:28:41.755Z,87.47
2022-12-28T02:34:13.444Z,87.46
2022-12-28T02:39:25.934Z,87.53
2022-12-28T02:44:48.226Z,87.65
2022-12-28T02:50:20.519Z,87.76
2022-12-28T02:56:08.701Z,87.89
2022-12-28T03:01:45.123Z,87.93
2022-12-28T03:07:31.599Z,87.95
2022-12-28T03:12:53.971Z,87.86
2022-12-28T03:18:38.233Z,87.82
2022-12-28T03:24:04.158Z,88.08
2022-12-28T03:29:32.274Z,88.19
2022-12-28T03:34:35.765Z,88.21
2022-12-28T03:40:12.801Z,88.08
2022-12-28T03:45:46.389Z,87.92
2022-12-28T03:50:51.505Z,87.80
2022-12-28T03:56:07.523Z,87.80
2022-12-28T04:01:11.526Z,87.83
2022-12-28T04:06:18.243Z,87.82
2022-12-28T04:11:21.590Z,87.64
2022-12-28T04:16:24.637Z,87.71
2022-12-28T04:21:27.794Z,87.69
2022-12-28T04:26:31.000Z,87.65
2022-12-28T04:31:34.229Z,87.65
2022-12-28T04:36:38.545Z,87.64
2022-12-28T04:41:41.865Z,87.71
2022-12-28T04:46:44.998Z,87.75
2022-12-28T04:51:48.071Z,87.72
2022-12-28T04:56:51.073Z,87.86
2022-12-28T05:01:54.272Z,87.82
2022-12-28T05:06:57.702Z,87.71
2022-12-28T05:12:01.003Z,87.66
2022-12-28T05:17:04.845Z,87.65
2022-12-28T05:22:12.150Z,87.67
2022-12-28T05:27:15.376Z,87.79
2022-12-28T05:32:18.347Z,87.80
2022-12-28T05:37:22.356Z,87.81
2022-12-28T05:42:25.687Z,87.85
2022-12-28T05:47:28.897Z,87.99
2022-12-28T05:52:32.831Z,88.19
2022-12-28T05:57:35.927Z,88.31
2022-12-28T06:02:39.422Z,88.44
2022-12-28T06:07:42.691Z,88.50
2022-12-28T06:12:45.766Z,88.50
2022-12-28T06:17:53.511Z,88.38
2022-12-28T06:22:56.580Z,88.32
2022-12-28T06:27:59.697Z,88.32
2022-12-28T06:33:03.003Z,88.42
2022-12-28T06:38:06.724Z,88.51
2022-12-28T06:43:09.817Z,88.56
2022-12-28T06:48:12.823Z,88.50
2022-12-28T06:53:15.973Z,88.42
2022-12-28T06:58:19.032Z,88.28
2022-12-28T07:03:24.569Z,88.20
2022-12-28T07:08:28.779Z,88.21
2022-12-28T07:13:31.958Z,88.22
2022-12-28T07:18:35.047Z,88.30
2022-12-28T07:23:39.083Z,88.38
2022-12-28T07:28:47.198Z,88.33
2022-12-28T07:33:53.033Z,88.22
2022-12-28T07:38:57.457Z,88.10
2022-12-28T07:44:01.133Z,88.00
2022-12-28T07:49:05.253Z,88.07
2022-12-28T07:54:08.611Z,88.00
2022-12-28T07:59:13.590Z,88.04
2022-12-28T08:04:18.160Z,87.93
2022-12-28T08:09:21.367Z,87.72
2022-12-28T08:14:24.477Z,87.51
2022-12-28T08:19:27.579Z,87.42
2022-12-28T08:24:30.893Z,87.39
2022-12-28T08:29:34.110Z,87.40
2022-12-28T08:34:37.419Z,87.40
2022-12-28T08:39:40.538Z,87.22
2022-12-28T08:44:43.625Z,86.83
2022-12-28T08:49:46.944Z,86.75
2022-12-28T08:54:50.448Z,86.76
2022-12-28T08:59:53.455Z,86.60
2022-12-28T09:04:56.559Z,86.56
2022-12-28T09:10:00.006Z,86.32
2022-12-28T09:15:03.278Z,86.14
2022-12-28T09:20:07.397Z,85.96
2022-12-28T09:25:10.513Z,85.68
2022-12-28T09:30:13.735Z,85.62
2022-12-28T09:35:16.887Z,85.63
2022-12-28T09:40:20.161Z,85.36
2022-12-28T09:45:26.533Z,85.07
2022-12-28T09:50:35.630Z,84.75
2022-12-28T09:55:43.933Z,84.57
2022-12-28T10:01:11.425Z,84.63
2022-12-28T10:06:21.072Z,84.26
2022-12-28T10:11:30.676Z,84.11
2022-12-28T10:16:33.870Z,83.80
2022-12-28T10:21:37.339Z,83.75
2022-12-28T10:26:47.343Z,83.46
2022-12-28T10:32:20.617Z,83.53
2022-12-28T10:37:26.174Z,83.40
2022-12-28T10:42:40.712Z,83.20
2022-12-28T10:47:49.269Z,82.81
2022-12-28T10:52:58.984Z,82.64
2022-12-28T10:58:30.753Z,82.62
2022-12-28T11:03:38.980Z,82.54
2022-12-28T11:08:44.823Z,82.50
2022-12-28T11:13:56.826Z,82.08
2022-12-28T11:19:00.749Z,82.14
2022-12-28T11:24:05.545Z,81.98
2022-12-28T11:29:13.509Z,81.86
2022-12-28T11:34:23.613Z,81.50
2022-12-28T11:39:26.600Z,81.14
2022-12-28T11:44:29.701Z,80.70
2022-12-28T11:49:35.975Z,80.50
2022-12-28T11:54:50.563Z,80.40
2022-12-28T11:59:53.660Z,80.16
2022-12-28T12:04:56.765Z,79.77
2022-12-28T12:10:36.837Z,79.61
2022-12-28T12:15:44.792Z,79.53
2022-12-28T12:21:11.647Z,79.32
2022-12-28T12:26:48.169Z,79.27
2022-12-28T12:32:02.816Z,78.94
2022-12-28T12:37:30.885Z,78.68
2022-12-28T12:43:09.935Z,78.82
2022-12-28T12:48:22.968Z,78.99
2022-12-28T12:54:01.402Z,78.82
2022-12-28T12:59:47.110Z,78.93
2022-12-28T13:04:51.452Z,78.90
2022-12-28T13:10:02.102Z,79.28
2022-12-28T13:15:12.458Z,79.57
2022-12-28T13:20:22.008Z,79.60
2022-12-28T13:25:34.672Z,79.71
2022-12-28T13:30:38.724Z,79.92
2022-12-28T13:35:41.819Z,80.08
2022-12-28T13:40:53.856Z,80.15
2022-12-28T13:46:08.235Z,80.41
2022-12-28T13:51:16.032Z,81.04
2022-12-28T13:56:22.506Z,82.03
2022-12-28T14:01:34.463Z,82.91
2022-12-28T14:06:37.932Z,83.64
2022-12-28T14:11:46.713Z,84.19
2022-12-28T14:16:49.877Z,84.64
2022-12-28T14:21:53.432Z,84.68
2022-12-28T14:26:58.654Z,84.76
2022-12-28T14:32:07.367Z,84.89
2022-12-28T14:37:39.171Z,85.08
2022-12-28T14:42:42.288Z,85.00
2022-12-28T14:47:48.215Z,84.99
2022-12-28T14:53:13.923Z,85.03
2022-12-28T14:58:39.633Z,85.08
2022-12-28T15:03:48.820Z,85.17
2022-12-28T15:09:01.365Z,85.18
2022-12-28T15:14:04.607Z,85.15
2022-12-28T15:19:07.833Z,85.25
2022-12-28T15:24:11.022Z,85.14
2022-12-28T15:29:22.103Z,84.94
2022-12-28T15:34:35.673Z,84.68
2022-12-28T15:39:39.079Z,84.75
2022-12-28T15:44:42.189Z,84.89
2022-12-28T15:49:45.405Z,85.08
2022-12-28T15:54:48.507Z,85.09
2022-12-28T15:59:51.632Z,85.11
2022-12-28T16:04:56.259Z,85.29
2022-12-28T16:09:59.357Z,85.53
2022-12-28T16:15:02.664Z,85.60
2022-12-28T16:20:07.182Z,85.69
2022-12-28T16:25:11.148Z,85.78
2022-12-28T16:30:14.856Z,85.94
2022-12-28T16:35:18.067Z,86.13
2022-12-28T16:40:21.302Z,86.29
2022-12-28T16:45:24.683Z,86.31
2022-12-28T16:50:28.812Z,86.22
2022-12-28T16:55:43.189Z,86.02
2022-12-28T17:00:46.999Z,85.99
2022-12-28T17:05:52.597Z,86.00
2022-12-28T17:10:55.987Z,86.04
2022-12-28T17:16:03.190Z,85.91
2022-12-28T17:21:10.424Z,85.83
2022-12-28T17:26:13.701Z,85.60
2022-12-28T17:31:21.609Z,85.53
2022-12-28T17:36:25.558Z,85.56
2022-12-28T17:41:28.982Z,85.51
2022-12-28T17:46:38.011Z,85.39
2022-12-28T17:51:44.854Z,85.45
2022-12-28T17:56:48.142Z,85.57
2022-12-28T18:01:51.524Z,85.58
2022-12-28T18:06:54.937Z,85.55
2022-12-28T18:11:58.452Z,85.48
2022-12-28T18:17:01.926Z,85.51
2022-12-28T18:22:05.307Z,85.63
2022-12-28T18:27:10.437Z,85.71
2022-12-28T18:32:13.741Z,85.79
2022-12-28T18:37:17.070Z,85.68
2022-12-28T18:42:20.780Z,85.61
2022-12-28T18:47:24.532Z,85.68
2022-12-28T18:52:27.825Z,85.81
2022-12-28T18:57:30.917Z,85.89
2022-12-28T19:02:34.497Z,85.90
2022-12-28T19:07:38.293Z,85.93
2022-12-28T19:12:44.263Z,86.08
2022-12-28T19:17:47.340Z,86.39
2022-12-28T19:22:50.556Z,86.57
2022-12-28T19:27:53.954Z,86.51
2022-12-28T19:32:57.272Z,86.64
2022-12-28T19:38:00.474Z,86.85
2022-12-28T19:43:04.240Z,87.07
2022-12-28T19:48:07.298Z,87.27
2022-12-28T19:53:10.524Z,87.46
2022-12-28T19:58:13.821Z,87.60
2022-12-28T20:03:17.046Z,87.77
2022-12-28T20:08:20.342Z,88.11
2022-12-28T20:13:23.474Z,88.42
2022-12-28T20:18:26.759Z,88.62
2022-12-28T20:23:30.806Z,88.95
2022-12-28T20:28:34.707Z,89.28
2022-12-28T20:33:38.558Z,89.46
2022-12-28T20:38:42.491Z,89.46
2022-12-28T20:43:48.757Z,89.49
2022-12-28T20:48:54.097Z,89.55
2022-12-28T20:53:57.337Z,89.57
2022-12-28T20:59:00.529Z,89.53
2022-12-28T21:04:05.004Z,89.79
2022-12-28T21:09:08.375Z,90.04
2022-12-28T21:14:12.075Z,90.07
2022-12-28T21:19:15.194Z,89.97
2022-12-28T21:24:18.426Z,90.01
2022-12-28T21:29:25.717Z,89.96
2022-12-28T21:34:30.150Z,90.04
2022-12-28T21:39:33.300Z,89.90
2022-12-28T21:44:36.569Z,89.77
2022-12-28T21:49:39.972Z,89.64
2022-12-28T21:54:43.084Z,89.50
2022-12-28T21:59:46.182Z,89.39
2022-12-28T22:05:08.342Z,89.20
2022-12-28T22:10:31.539Z,89.11
2022-12-28T22:15:53.111Z,89.08
2022-12-28T22:20:56.669Z,88.98
2022-12-28T22:25:59.680Z,88.81
2022-12-28T22:31:08.232Z,88.75
2022-12-28T22:36:19.237Z,88.67
2022-12-28T22:41:22.924Z,88.68
2022-12-28T22:46:26.068Z,88.89
2022-12-28T22:51:29.256Z,89.25
2022-12-28T22:56:32.763Z,89.70
2022-12-28T23:01:36.307Z,90.06
2022-12-28T23:06:39.688Z,90.26
2022-12-28T23:11:43.032Z,90.32
2022-12-28T23:16:47.325Z,90.32
2022-12-28T23:22:09.380Z,90.54
2022-12-28T23:27:21.294Z,90.49
2022-12-28T23:32:24.908Z,90.38
2022-12-28T23:37:28.520Z,90.24
2022-12-28T23:42:31.635Z,90.18
2022-12-28T23:47:35.642Z,90.11
2022-12-28T23:52:39.074Z,89.95
2022-12-28T23:57:42.285Z,89.69
